RYR004 LFLL-EDDN
Flight info
| Callsign | RYR004 |
|---|---|
| Flight time | N/A |
| Altitude | 30000 |
| Route | BELUS8S BELUS Z87 SOPLO N871 DITON T163 ZUE T125 ROMIR N851 ESULI Y710 SUDEN Z79 GUPIN N869 DINKU DCT LETKU LETKU1T |
| Aircraft | B738/M-SDE2E3FGHIRWXY/LB1 |
Departure
| Time | 2026-04-28 14:51 |
|---|---|
| Airport | Lyon Saint-Exupéry Airport (LFLL) |
Arrival
| Time | N/A |
|---|---|
| Airport | Nuremberg Airport (EDDN) |
| Time | Latitude | Longitude | Altitude | Speed | Heading |
|---|---|---|---|---|---|
| 2026-04-28 14:41 | 45.71486 | 5.08401 | 805 ft | 0 kts | 355° |
| 2026-04-28 14:42 | 45.71491 | 5.08403 | 805 ft | 1 kts | 30° |
| 2026-04-28 14:42 | 45.71480 | 5.08413 | 805 ft | 4 kts | 170° |
| 2026-04-28 14:43 | 45.71451 | 5.08456 | 807 ft | 7 kts | 99° |
| 2026-04-28 14:43 | 45.71494 | 5.08517 | 807 ft | 12 kts | 2° |
| 2026-04-28 14:43 | 45.71607 | 5.08498 | 805 ft | 20 kts | 352° |
| 2026-04-28 14:43 | 45.71765 | 5.08482 | 803 ft | 25 kts | 355° |
| 2026-04-28 14:44 | 45.71961 | 5.08452 | 801 ft | 31 kts | 351° |
| 2026-04-28 14:44 | 45.72200 | 5.08427 | 798 ft | 36 kts | 356° |
| 2026-04-28 14:44 | 45.72449 | 5.08397 | 793 ft | 35 kts | 356° |
| 2026-04-28 14:44 | 45.72696 | 5.08367 | 787 ft | 36 kts | 354° |
| 2026-04-28 14:45 | 45.72949 | 5.08337 | 782 ft | 36 kts | 353° |
| 2026-04-28 14:45 | 45.73197 | 5.08308 | 776 ft | 35 kts | 355° |
| 2026-04-28 14:45 | 45.73442 | 5.08278 | 773 ft | 35 kts | 355° |
| 2026-04-28 14:45 | 45.73685 | 5.08249 | 769 ft | 35 kts | 353° |
| 2026-04-28 14:46 | 45.73927 | 5.08220 | 765 ft | 34 kts | 355° |
| 2026-04-28 14:46 | 45.74156 | 5.08261 | 766 ft | 30 kts | 16° |
| 2026-04-28 14:46 | 45.74336 | 5.08362 | 765 ft | 17 kts | 57° |
| 2026-04-28 14:46 | 45.74356 | 5.08471 | 767 ft | 0 kts | 87° |
| 2026-04-28 14:47 | 45.74356 | 5.08479 | 767 ft | 2 kts | 87° |
| 2026-04-28 14:48 | 45.74356 | 5.08539 | 767 ft | 8 kts | 103° |
| 2026-04-28 14:48 | 45.74308 | 5.08626 | 768 ft | 14 kts | 149° |
| 2026-04-28 14:48 | 45.74257 | 5.08643 | 768 ft | 0 kts | 174° |
| 2026-04-28 14:49 | 45.74255 | 5.08644 | 768 ft | 4 kts | 174° |
| 2026-04-28 14:49 | 45.74083 | 5.08665 | 769 ft | 46 kts | 175° |
| 2026-04-28 14:50 | 45.73627 | 5.08713 | 775 ft | 78 kts | 179° |
| 2026-04-28 14:50 | 45.73037 | 5.08789 | 787 ft | 93 kts | 176° |
| 2026-04-28 14:50 | 45.72307 | 5.08786 | 801 ft | 121 kts | 186° |
| 2026-04-28 14:50 | 45.71304 | 5.08865 | 916 ft | 164 kts | 170° |
| 2026-04-28 14:51 | 45.70112 | 5.09253 | 1303 ft | 190 kts | 168° |
| 2026-04-28 14:51 | 45.68710 | 5.09482 | 1624 ft | 215 kts | 182° |
| 2026-04-28 14:51 | 45.67206 | 5.09430 | 1916 ft | 224 kts | 183° |
| 2026-04-28 14:51 | 45.65591 | 5.09464 | 2317 ft | 242 kts | 179° |
| 2026-04-28 14:52 | 45.63879 | 5.09672 | 2699 ft | 259 kts | 175° |
| 2026-04-28 14:52 | 45.62049 | 5.10008 | 3148 ft | 271 kts | 173° |
| 2026-04-28 14:52 | 45.60197 | 5.10382 | 3847 ft | 271 kts | 172° |
| 2026-04-28 14:52 | 45.58373 | 5.10832 | 4604 ft | 268 kts | 165° |
| 2026-04-28 14:53 | 45.56762 | 5.12078 | 5353 ft | 267 kts | 141° |
| 2026-04-28 14:53 | 45.55574 | 5.14121 | 6024 ft | 274 kts | 121° |
| 2026-04-28 14:53 | 45.54816 | 5.16578 | 6917 ft | 273 kts | 110° |
| 2026-04-28 14:53 | 45.54541 | 5.19260 | 7627 ft | 283 kts | 89° |
| 2026-04-28 14:54 | 45.54855 | 5.22018 | 8437 ft | 288 kts | 80° |
| 2026-04-28 14:54 | 45.54990 | 5.24852 | 9257 ft | 286 kts | 101° |
| 2026-04-28 14:54 | 45.54449 | 5.27510 | 10030 ft | 285 kts | 116° |
| 2026-04-28 14:54 | 45.53561 | 5.30059 | 10812 ft | 288 kts | 121° |
| 2026-04-28 14:55 | 45.52620 | 5.32559 | 11537 ft | 292 kts | 121° |
| 2026-04-28 14:55 | 45.51690 | 5.35120 | 12250 ft | 297 kts | 120° |
| 2026-04-28 14:55 | 45.50797 | 5.37790 | 12958 ft | 303 kts | 114° |
| 2026-04-28 14:55 | 45.50460 | 5.40770 | 13615 ft | 316 kts | 88° |
| 2026-04-28 14:56 | 45.51995 | 5.46735 | 14649 ft | 342 kts | 49° |
| 2026-04-28 14:56 | 45.53878 | 5.48906 | 15053 ft | 356 kts | 29° |
| 2026-04-28 14:56 | 45.56116 | 5.50495 | 15394 ft | 371 kts | 22° |
| 2026-04-28 14:57 | 45.59095 | 5.52251 | 15842 ft | 387 kts | 22° |
| 2026-04-28 14:57 | 45.60714 | 5.53351 | 16236 ft | 391 kts | 25° |
| 2026-04-28 14:57 | 45.63881 | 5.55886 | 17231 ft | 393 kts | 29° |
| 2026-04-28 14:57 | 45.66185 | 5.57920 | 17891 ft | 397 kts | 30° |
| 2026-04-28 14:58 | 45.68457 | 5.60171 | 18493 ft | 402 kts | 35° |
| 2026-04-28 14:58 | 45.70644 | 5.62701 | 19133 ft | 406 kts | 38° |
| 2026-04-28 14:58 | 45.72786 | 5.65366 | 19726 ft | 411 kts | 40° |
| 2026-04-28 14:58 | 45.74956 | 5.68103 | 19991 ft | 424 kts | 40° |
| 2026-04-28 14:59 | 45.77200 | 5.70929 | 20207 ft | 438 kts | 40° |
| 2026-04-28 14:59 | 45.79476 | 5.73782 | 20679 ft | 443 kts | 39° |
| 2026-04-28 14:59 | 45.81814 | 5.76703 | 21336 ft | 445 kts | 39° |
| 2026-04-28 14:59 | 45.84144 | 5.79602 | 21886 ft | 448 kts | 39° |
| 2026-04-28 15:00 | 45.86514 | 5.82546 | 22352 ft | 454 kts | 39° |
| 2026-04-28 15:00 | 45.88899 | 5.85508 | 22848 ft | 458 kts | 39° |
| 2026-04-28 15:00 | 45.91300 | 5.88495 | 23386 ft | 461 kts | 39° |
| 2026-04-28 15:00 | 45.93719 | 5.91507 | 23887 ft | 465 kts | 39° |
| 2026-04-28 15:01 | 45.96189 | 5.94581 | 24036 ft | 477 kts | 39° |
| 2026-04-28 15:01 | 45.98741 | 5.97755 | 24139 ft | 490 kts | 39° |
| 2026-04-28 15:01 | 46.01329 | 6.00978 | 24421 ft | 498 kts | 39° |
| 2026-04-28 15:01 | 46.03081 | 6.03165 | 24925 ft | 497 kts | 39° |
| 2026-04-28 15:02 | 46.05658 | 6.06386 | 25620 ft | 495 kts | 39° |
| 2026-04-28 15:02 | 46.09115 | 6.10717 | 26508 ft | 493 kts | 39° |
| 2026-04-28 15:02 | 46.11698 | 6.13957 | 27155 ft | 492 kts | 39° |
| 2026-04-28 15:02 | 46.14246 | 6.17159 | 27775 ft | 491 kts | 39° |
| 2026-04-28 15:03 | 46.16828 | 6.20407 | 28334 ft | 491 kts | 39° |
| 2026-04-28 15:03 | 46.19368 | 6.23604 | 28903 ft | 490 kts | 38° |
| 2026-04-28 15:03 | 46.21929 | 6.26830 | 29502 ft | 488 kts | 38° |
| 2026-04-28 15:03 | 46.24460 | 6.30027 | 30171 ft | 485 kts | 38° |
| 2026-04-28 15:04 | 46.26980 | 6.33207 | 30560 ft | 487 kts | 38° |
| 2026-04-28 15:04 | 46.29523 | 6.36412 | 31059 ft | 486 kts | 38° |
| 2026-04-28 15:04 | 46.32068 | 6.39625 | 31580 ft | 485 kts | 38° |
| 2026-04-28 15:04 | 46.34606 | 6.42830 | 31975 ft | 486 kts | 37° |
| 2026-04-28 15:05 | 46.37109 | 6.45995 | 32463 ft | 485 kts | 37° |
| 2026-04-28 15:05 | 46.38808 | 6.48149 | 32748 ft | 485 kts | 37° |
| 2026-04-28 15:05 | 46.42117 | 6.52354 | 33342 ft | 484 kts | 37° |
| 2026-04-28 15:05 | 46.44653 | 6.55585 | 33783 ft | 483 kts | 37° |
| 2026-04-28 15:06 | 46.47174 | 6.58801 | 34234 ft | 482 kts | 36° |
| 2026-04-28 15:06 | 46.49677 | 6.61998 | 34647 ft | 481 kts | 36° |
| 2026-04-28 15:06 | 46.52191 | 6.65211 | 34664 ft | 490 kts | 37° |
| 2026-04-28 15:07 | 46.57396 | 6.71850 | 34637 ft | 507 kts | 37° |
| 2026-04-28 15:07 | 46.60053 | 6.75249 | 34846 ft | 509 kts | 37° |
| 2026-04-28 15:07 | 46.62694 | 6.78642 | 35011 ft | 510 kts | 37° |
| 2026-04-28 15:08 | 46.67930 | 6.85397 | 35041 ft | 504 kts | 37° |
| 2026-04-28 15:08 | 46.73147 | 6.92146 | 35038 ft | 504 kts | 37° |
| 2026-04-28 15:09 | 46.78371 | 6.98894 | 35031 ft | 505 kts | 37° |
| 2026-04-28 15:09 | 46.83613 | 7.05680 | 35033 ft | 506 kts | 37° |
| 2026-04-28 15:10 | 46.88851 | 7.12489 | 35034 ft | 505 kts | 37° |
| 2026-04-28 15:10 | 46.94078 | 7.19304 | 35035 ft | 506 kts | 37° |
| 2026-04-28 15:11 | 46.99308 | 7.26157 | 35033 ft | 506 kts | 37° |
| 2026-04-28 15:11 | 47.04531 | 7.33015 | 35035 ft | 506 kts | 37° |
| 2026-04-28 15:12 | 47.09765 | 7.39906 | 35039 ft | 506 kts | 37° |
| 2026-04-28 15:12 | 47.14938 | 7.46732 | 35043 ft | 506 kts | 37° |
| 2026-04-28 15:13 | 47.20207 | 7.53693 | 35051 ft | 506 kts | 37° |
| 2026-04-28 15:13 | 47.25396 | 7.60574 | 35049 ft | 507 kts | 37° |
| 2026-04-28 15:14 | 47.30595 | 7.67489 | 35038 ft | 506 kts | 37° |
| 2026-04-28 15:14 | 47.35833 | 7.74477 | 35033 ft | 507 kts | 37° |
| 2026-04-28 15:15 | 47.41014 | 7.81406 | 35031 ft | 507 kts | 37° |
| 2026-04-28 15:15 | 47.46206 | 7.88366 | 35032 ft | 507 kts | 37° |
| 2026-04-28 15:16 | 47.51400 | 7.95343 | 35027 ft | 507 kts | 37° |
| 2026-04-28 15:16 | 47.55682 | 8.01115 | 35034 ft | 507 kts | 37° |
| 2026-04-28 15:17 | 47.61692 | 8.09236 | 35037 ft | 505 kts | 37° |
| 2026-04-28 15:17 | 47.66798 | 8.16167 | 35049 ft | 505 kts | 37° |
| 2026-04-28 15:18 | 47.71941 | 8.23159 | 35052 ft | 508 kts | 36° |
| 2026-04-28 15:18 | 47.77093 | 8.30187 | 35055 ft | 505 kts | 36° |
| 2026-04-28 15:19 | 47.82275 | 8.37266 | 35051 ft | 505 kts | 37° |
| 2026-04-28 15:19 | 47.87409 | 8.44302 | 35052 ft | 505 kts | 36° |
| 2026-04-28 15:20 | 47.92563 | 8.51388 | 35054 ft | 504 kts | 36° |
| 2026-04-28 15:20 | 47.97684 | 8.58447 | 35049 ft | 504 kts | 36° |
| 2026-04-28 15:21 | 48.02822 | 8.65553 | 35043 ft | 503 kts | 37° |
| 2026-04-28 15:21 | 48.07942 | 8.72652 | 35055 ft | 504 kts | 37° |
| 2026-04-28 15:22 | 48.13039 | 8.79743 | 35048 ft | 504 kts | 37° |
| 2026-04-28 15:22 | 48.18167 | 8.86895 | 35046 ft | 505 kts | 37° |
| 2026-04-28 15:23 | 48.23251 | 8.94003 | 35052 ft | 505 kts | 37° |
| 2026-04-28 15:23 | 48.28357 | 9.01172 | 35056 ft | 503 kts | 37° |
| 2026-04-28 15:24 | 48.33450 | 9.08334 | 35054 ft | 503 kts | 37° |
| 2026-04-28 15:24 | 48.38532 | 9.15501 | 35059 ft | 505 kts | 37° |
| 2026-04-28 15:25 | 48.43596 | 9.22661 | 35053 ft | 500 kts | 37° |
| 2026-04-28 15:25 | 48.48663 | 9.29848 | 35055 ft | 501 kts | 37° |
| 2026-04-28 15:26 | 48.53738 | 9.37063 | 35056 ft | 503 kts | 37° |
| 2026-04-28 15:26 | 48.58741 | 9.44197 | 35060 ft | 502 kts | 37° |
| 2026-04-28 15:27 | 48.63767 | 9.51384 | 35061 ft | 499 kts | 37° |
| 2026-04-28 15:27 | 48.68735 | 9.58527 | 35069 ft | 487 kts | 37° |
| 2026-04-28 15:28 | 48.73609 | 9.65534 | 35062 ft | 489 kts | 37° |
| 2026-04-28 15:28 | 48.78541 | 9.72634 | 35056 ft | 491 kts | 38° |
| 2026-04-28 15:29 | 48.83469 | 9.79764 | 35071 ft | 488 kts | 37° |
| 2026-04-28 15:29 | 48.88352 | 9.86850 | 35077 ft | 489 kts | 37° |
| 2026-04-28 15:30 | 48.93234 | 9.93953 | 35084 ft | 489 kts | 37° |
| 2026-04-28 15:30 | 48.98141 | 10.01117 | 35086 ft | 489 kts | 37° |
| 2026-04-28 15:31 | 49.03007 | 10.08242 | 35083 ft | 488 kts | 37° |
| 2026-04-28 15:31 | 49.07875 | 10.15383 | 35092 ft | 489 kts | 37° |
| 2026-04-28 15:32 | 49.12734 | 10.22541 | 35083 ft | 486 kts | 37° |
| 2026-04-28 15:32 | 49.17576 | 10.29694 | 35086 ft | 486 kts | 37° |
| 2026-04-28 15:33 | 49.22414 | 10.36859 | 35083 ft | 481 kts | 37° |
| 2026-04-28 15:33 | 49.24751 | 10.40384 | 35102 ft | 468 kts | 40° |
| 2026-04-28 15:33 | 49.26850 | 10.44064 | 35036 ft | 460 kts | 46° |
| 2026-04-28 15:33 | 49.28681 | 10.48023 | 34712 ft | 457 kts | 52° |
| 2026-04-28 15:34 | 49.29744 | 10.50803 | 34300 ft | 458 kts | 56° |
| 2026-04-28 15:34 | 49.31515 | 10.56729 | 33022 ft | 468 kts | 66° |
| 2026-04-28 15:34 | 49.32492 | 10.61434 | 32150 ft | 472 kts | 72° |
| 2026-04-28 15:34 | 49.33154 | 10.66363 | 31366 ft | 471 kts | 80° |
| 2026-04-28 15:35 | 49.33472 | 10.71306 | 30568 ft | 470 kts | 86° |
| 2026-04-28 15:35 | 49.33116 | 10.81220 | 28679 ft | 471 kts | 98° |
| 2026-04-28 15:35 | 49.32560 | 10.86114 | 28275 ft | 461 kts | 101° |
| 2026-04-28 15:36 | 49.31954 | 10.90848 | 27619 ft | 455 kts | 101° |
| 2026-04-28 15:36 | 49.31344 | 10.95551 | 26931 ft | 448 kts | 101° |
| 2026-04-28 15:36 | 49.30755 | 11.00239 | 26208 ft | 443 kts | 101° |
| 2026-04-28 15:36 | 49.30209 | 11.04791 | 25550 ft | 437 kts | 100° |
| 2026-04-28 15:37 | 49.29688 | 11.09339 | 24897 ft | 429 kts | 99° |
| 2026-04-28 15:37 | 49.29249 | 11.13795 | 24210 ft | 424 kts | 94° |
| 2026-04-28 15:37 | 49.29224 | 11.18206 | 23515 ft | 417 kts | 83° |
| 2026-04-28 15:37 | 49.29497 | 11.21126 | 23029 ft | 412 kts | 76° |
| 2026-04-28 15:38 | 49.30721 | 11.26550 | 22151 ft | 400 kts | 59° |
| 2026-04-28 15:38 | 49.32331 | 11.29818 | 21960 ft | 382 kts | 40° |
| 2026-04-28 15:38 | 49.34359 | 11.32311 | 21752 ft | 363 kts | 28° |
| 2026-04-28 15:38 | 49.36558 | 11.34040 | 21170 ft | 354 kts | 17° |
| 2026-04-28 15:39 | 49.38875 | 11.34971 | 20677 ft | 342 kts | 4° |
| 2026-04-28 15:39 | 49.41217 | 11.35087 | 20208 ft | 331 kts | 352° |
| 2026-04-28 15:39 | 49.43431 | 11.34417 | 19585 ft | 325 kts | 339° |
| 2026-04-28 15:39 | 49.45459 | 11.32986 | 18961 ft | 321 kts | 326° |
| 2026-04-28 15:40 | 49.47097 | 11.30769 | 18348 ft | 316 kts | 304° |
| 2026-04-28 15:40 | 49.47880 | 11.27660 | 17707 ft | 316 kts | 276° |
| 2026-04-28 15:40 | 49.47598 | 11.24365 | 17086 ft | 319 kts | 253° |
| 2026-04-28 15:40 | 49.46761 | 11.21298 | 16482 ft | 319 kts | 246° |
| 2026-04-28 15:41 | 49.45839 | 11.18397 | 15917 ft | 318 kts | 245° |
| 2026-04-28 15:41 | 49.44886 | 11.15476 | 15359 ft | 316 kts | 245° |
| 2026-04-28 15:41 | 49.43909 | 11.12485 | 14843 ft | 312 kts | 245° |
| 2026-04-28 15:41 | 49.42966 | 11.09604 | 14645 ft | 298 kts | 245° |
| 2026-04-28 15:42 | 49.42072 | 11.06864 | 14500 ft | 284 kts | 246° |
| 2026-04-28 15:42 | 49.41312 | 11.04134 | 14362 ft | 270 kts | 253° |
| 2026-04-28 15:42 | 49.40836 | 11.01417 | 14095 ft | 262 kts | 262° |
| 2026-04-28 15:42 | 49.40697 | 10.98628 | 13503 ft | 268 kts | 273° |
| 2026-04-28 15:43 | 49.40862 | 10.95768 | 12851 ft | 275 kts | 279° |
| 2026-04-28 15:43 | 49.41154 | 10.92890 | 12208 ft | 281 kts | 281° |
| 2026-04-28 15:43 | 49.41479 | 10.89889 | 11556 ft | 287 kts | 280° |
| 2026-04-28 15:43 | 49.41797 | 10.86848 | 10918 ft | 292 kts | 280° |
| 2026-04-28 15:44 | 49.42099 | 10.83801 | 10291 ft | 296 kts | 279° |
| 2026-04-28 15:44 | 49.42402 | 10.80660 | 9650 ft | 300 kts | 279° |
| 2026-04-28 15:44 | 49.42701 | 10.77487 | 9019 ft | 303 kts | 279° |
| 2026-04-28 15:44 | 49.43006 | 10.74280 | 8391 ft | 304 kts | 279° |
| 2026-04-28 15:45 | 49.43301 | 10.71177 | 8147 ft | 292 kts | 279° |
| 2026-04-28 15:45 | 49.43398 | 10.70160 | 8075 ft | 288 kts | 279° |
| 2026-04-28 15:45 | 49.43498 | 10.69122 | 8026 ft | 283 kts | 279° |